sensor_id;sensor_type;location;lat;lon;timestamp;pressure;altitude;pressure_sealevel;temperature;humidity
30730;BME280;17476;48.458;7.928;2023-04-26T00:00:52;100066.97;;;9.05;98.43
30730;BME280;17476;48.458;7.928;2023-04-26T00:03:19;100068.72;;;8.96;96.76
30730;BME280;17476;48.458;7.928;2023-04-26T00:05:46;100065.34;;;8.86;97.51
30730;BME280;17476;48.458;7.928;2023-04-26T00:08:12;100064.53;;;8.86;98.18
30730;BME280;17476;48.458;7.928;2023-04-26T00:10:37;100063.19;;;8.82;97.64
30730;BME280;17476;48.458;7.928;2023-04-26T00:13:05;100072.94;;;8.80;97.52
30730;BME280;17476;48.458;7.928;2023-04-26T00:15:31;100076.69;;;8.77;97.07
30730;BME280;17476;48.458;7.928;2023-04-26T00:17:57;100081.50;;;8.72;97.87
30730;BME280;17476;48.458;7.928;2023-04-26T00:20:22;100078.91;;;8.72;97.94
30730;BME280;17476;48.458;7.928;2023-04-26T00:22:49;100080.53;;;8.73;97.87
30730;BME280;17476;48.458;7.928;2023-04-26T00:25:15;100072.88;;;8.71;97.93
30730;BME280;17476;48.458;7.928;2023-04-26T00:27:42;100077.56;;;8.68;97.95
30730;BME280;17476;48.458;7.928;2023-04-26T00:30:08;100072.94;;;8.62;97.72
30730;BME280;17476;48.458;7.928;2023-04-26T00:32:34;100070.78;;;8.57;97.60
30730;BME280;17476;48.458;7.928;2023-04-26T00:35:02;100068.31;;;8.56;97.57
30730;BME280;17476;48.458;7.928;2023-04-26T00:37:28;100071.34;;;8.51;97.67
30730;BME280;17476;48.458;7.928;2023-04-26T00:39:54;100069.06;;;8.48;97.55
30730;BME280;17476;48.458;7.928;2023-04-26T00:42:21;100069.06;;;8.48;97.47
30730;BME280;17476;48.458;7.928;2023-04-26T00:44:47;100066.44;;;8.48;97.18
30730;BME280;17476;48.458;7.928;2023-04-26T00:47:14;100070.84;;;8.47;97.13
30730;BME280;17476;48.458;7.928;2023-04-26T00:49:40;100074.94;;;8.50;97.64
30730;BME280;17476;48.458;7.928;2023-04-26T00:52:07;100073.56;;;8.46;96.56
30730;BME280;17476;48.458;7.928;2023-04-26T00:54:33;100078.13;;;8.44;97.45
30730;BME280;17476;48.458;7.928;2023-04-26T00:56:59;100074.84;;;8.42;97.16
30730;BME280;17476;48.458;7.928;2023-04-26T00:59:28;100072.41;;;8.40;97.46
30730;BME280;17476;48.458;7.928;2023-04-26T01:01:54;100083.63;;;8.41;97.41
30730;BME280;17476;48.458;7.928;2023-04-26T01:04:20;100084.59;;;8.40;97.15
30730;BME280;17476;48.458;7.928;2023-04-26T01:06:50;100077.63;;;8.31;96.95
30730;BME280;17476;48.458;7.928;2023-04-26T01:09:17;100071.50;;;8.22;97.35
30730;BME280;17476;48.458;7.928;2023-04-26T01:11:43;100079.06;;;8.15;97.95
30730;BME280;17476;48.458;7.928;2023-04-26T01:14:10;100078.69;;;8.10;99.14
30730;BME280;17476;48.458;7.928;2023-04-26T01:16:35;100085.25;;;8.14;99.27
30730;BME280;17476;48.458;7.928;2023-04-26T01:19:10;100076.88;;;8.20;99.42
30730;BME280;17476;48.458;7.928;2023-04-26T01:21:40;100070.69;;;8.21;99.62
30730;BME280;17476;48.458;7.928;2023-04-26T01:24:08;100068.47;;;8.27;99.39
30730;BME280;17476;48.458;7.928;2023-04-26T01:26:34;100069.28;;;8.27;98.87
30730;BME280;17476;48.458;7.928;2023-04-26T01:29:00;100069.63;;;8.14;99.18
30730;BME280;17476;48.458;7.928;2023-04-26T01:31:26;100066.06;;;8.06;99.81
30730;BME280;17476;48.458;7.928;2023-04-26T01:33:52;100057.66;;;7.94;100.00
30730;BME280;17476;48.458;7.928;2023-04-26T01:36:17;100061.06;;;7.94;100.00
30730;BME280;17476;48.458;7.928;2023-04-26T01:38:43;100059.38;;;8.03;100.00
30730;BME280;17476;48.458;7.928;2023-04-26T01:41:09;100062.66;;;8.05;100.00
30730;BME280;17476;48.458;7.928;2023-04-26T01:43:35;100060.59;;;8.09;100.00
30730;BME280;17476;48.458;7.928;2023-04-26T01:46:00;100062.78;;;8.13;100.00
30730;BME280;17476;48.458;7.928;2023-04-26T01:48:26;100060.03;;;8.15;100.00
30730;BME280;17476;48.458;7.928;2023-04-26T01:50:52;100066.88;;;8.16;100.00
30730;BME280;17476;48.458;7.928;2023-04-26T01:53:18;100062.63;;;8.15;99.05
30730;BME280;17476;48.458;7.928;2023-04-26T01:55:43;100064.41;;;8.14;99.29
30730;BME280;17476;48.458;7.928;2023-04-26T01:58:09;100069.63;;;8.14;99.28
30730;BME280;17476;48.458;7.928;2023-04-26T02:00:36;100069.16;;;8.19;99.69
30730;BME280;17476;48.458;7.928;2023-04-26T02:03:02;100070.38;;;8.25;100.00
30730;BME280;17476;48.458;7.928;2023-04-26T02:05:27;100068.31;;;8.28;100.00
30730;BME280;17476;48.458;7.928;2023-04-26T02:07:53;100070.22;;;8.36;100.00
30730;BME280;17476;48.458;7.928;2023-04-26T02:10:19;100070.63;;;8.41;100.00
30730;BME280;17476;48.458;7.928;2023-04-26T02:12:45;100074.41;;;8.46;100.00
30730;BME280;17476;48.458;7.928;2023-04-26T02:15:11;100067.13;;;8.50;100.00
30730;BME280;17476;48.458;7.928;2023-04-26T02:17:37;100073.00;;;8.52;100.00
30730;BME280;17476;48.458;7.928;2023-04-26T02:20:04;100070.09;;;8.55;100.00
30730;BME280;17476;48.458;7.928;2023-04-26T02:22:31;100067.50;;;8.55;100.00
30730;BME280;17476;48.458;7.928;2023-04-26T02:24:57;100071.75;;;8.56;100.00
30730;BME280;17476;48.458;7.928;2023-04-26T02:27:23;100069.94;;;8.57;100.00
30730;BME280;17476;48.458;7.928;2023-04-26T02:29:49;100080.22;;;8.58;100.00
30730;BME280;17476;48.458;7.928;2023-04-26T02:32:14;100074.03;;;8.59;100.00
30730;BME280;17476;48.458;7.928;2023-04-26T02:34:41;100082.41;;;8.63;100.00
30730;BME280;17476;48.458;7.928;2023-04-26T02:37:07;100079.78;;;8.63;100.00
30730;BME280;17476;48.458;7.928;2023-04-26T02:39:33;100079.66;;;8.64;100.00
30730;BME280;17476;48.458;7.928;2023-04-26T02:41:59;100081.13;;;8.67;100.00
30730;BME280;17476;48.458;7.928;2023-04-26T02:44:28;100078.09;;;8.71;100.00
30730;BME280;17476;48.458;7.928;2023-04-26T02:46:55;100075.31;;;8.73;100.00
30730;BME280;17476;48.458;7.928;2023-04-26T02:49:21;100079.44;;;8.75;100.00
30730;BME280;17476;48.458;7.928;2023-04-26T02:51:47;100074.06;;;8.77;100.00
30730;BME280;17476;48.458;7.928;2023-04-26T02:54:13;100068.69;;;8.79;100.00
30730;BME280;17476;48.458;7.928;2023-04-26T02:56:38;100069.22;;;8.82;100.00
30730;BME280;17476;48.458;7.928;2023-04-26T02:59:04;100071.53;;;8.85;100.00
30730;BME280;17476;48.458;7.928;2023-04-26T03:01:30;100068.75;;;8.87;100.00
30730;BME280;17476;48.458;7.928;2023-04-26T03:03:56;100072.72;;;8.91;100.00
30730;BME280;17476;48.458;7.928;2023-04-26T03:06:21;100067.50;;;8.91;100.00
30730;BME280;17476;48.458;7.928;2023-04-26T03:08:47;100067.50;;;8.91;100.00
30730;BME280;17476;48.458;7.928;2023-04-26T03:11:13;100055.28;;;8.91;100.00
30730;BME280;17476;48.458;7.928;2023-04-26T03:13:39;100056.91;;;8.92;100.00
30730;BME280;17476;48.458;7.928;2023-04-26T03:16:05;100061.16;;;8.93;100.00
30730;BME280;17476;48.458;7.928;2023-04-26T03:18:31;100056.75;;;8.94;100.00
30730;BME280;17476;48.458;7.928;2023-04-26T03:20:57;100057.63;;;8.94;99.94
30730;BME280;17476;48.458;7.928;2023-04-26T03:23:22;100051.41;;;8.95;100.00
30730;BME280;17476;48.458;7.928;2023-04-26T03:25:50;100064.31;;;8.97;100.00
30730;BME280;17476;48.458;7.928;2023-04-26T03:28:16;100053.72;;;8.98;100.00
30730;BME280;17476;48.458;7.928;2023-04-26T03:30:42;100056.31;;;8.98;100.00
30730;BME280;17476;48.458;7.928;2023-04-26T03:33:08;100058.50;;;9.03;99.74
30730;BME280;17476;48.458;7.928;2023-04-26T03:35:34;100051.47;;;9.03;100.00
30730;BME280;17476;48.458;7.928;2023-04-26T03:37:59;100056.53;;;9.05;99.95
30730;BME280;17476;48.458;7.928;2023-04-26T03:40:25;100049.53;;;9.06;100.00
30730;BME280;17476;48.458;7.928;2023-04-26T03:42:51;100048.56;;;9.07;100.00
30730;BME280;17476;48.458;7.928;2023-04-26T03:45:17;100056.38;;;9.07;100.00
30730;BME280;17476;48.458;7.928;2023-04-26T03:47:43;100052.31;;;9.04;99.99
30730;BME280;17476;48.458;7.928;2023-04-26T03:50:09;100052.47;;;9.02;99.74
30730;BME280;17476;48.458;7.928;2023-04-26T03:52:35;100042.63;;;8.96;99.78
30730;BME280;17476;48.458;7.928;2023-04-26T03:55:01;100051.94;;;8.99;100.00
30730;BME280;17476;48.458;7.928;2023-04-26T03:57:27;100047.69;;;8.98;99.93
30730;BME280;17476;48.458;7.928;2023-04-26T03:59:52;100048.00;;;8.95;99.27
30730;BME280;17476;48.458;7.928;2023-04-26T04:02:18;100055.13;;;8.93;99.76
30730;BME280;17476;48.458;7.928;2023-04-26T04:04:44;100047.19;;;8.94;100.00
30730;BME280;17476;48.458;7.928;2023-04-26T04:07:10;100044.41;;;8.96;99.92
30730;BME280;17476;48.458;7.928;2023-04-26T04:09:39;100047.84;;;8.96;99.79
30730;BME280;17476;48.458;7.928;2023-04-26T04:12:05;100038.88;;;8.99;99.62
30730;BME280;17476;48.458;7.928;2023-04-26T04:14:31;100035.63;;;8.97;99.65
30730;BME280;17476;48.458;7.928;2023-04-26T04:16:57;100042.78;;;8.95;98.77
30730;BME280;17476;48.458;7.928;2023-04-26T04:19:24;100035.91;;;8.94;99.31
30730;BME280;17476;48.458;7.928;2023-04-26T04:21:49;100038.66;;;8.92;98.39
30730;BME280;17476;48.458;7.928;2023-04-26T04:24:16;100037.19;;;8.90;98.04
30730;BME280;17476;48.458;7.928;2023-04-26T04:26:42;100035.03;;;8.85;98.39
30730;BME280;17476;48.458;7.928;2023-04-26T04:29:08;100033.22;;;8.86;98.77
30730;BME280;17476;48.458;7.928;2023-04-26T04:31:36;100038.75;;;8.83;98.75
30730;BME280;17476;48.458;7.928;2023-04-26T04:34:04;100043.16;;;8.82;98.89
30730;BME280;17476;48.458;7.928;2023-04-26T04:36:30;100043.44;;;8.79;98.65
30730;BME280;17476;48.458;7.928;2023-04-26T04:38:56;100048.66;;;8.79;99.29
30730;BME280;17476;48.458;7.928;2023-04-26T04:41:22;100055.50;;;8.80;99.42
30730;BME280;17476;48.458;7.928;2023-04-26T04:43:48;100057.84;;;8.83;99.24
30730;BME280;17476;48.458;7.928;2023-04-26T04:46:14;100055.72;;;8.87;99.54
30730;BME280;17476;48.458;7.928;2023-04-26T04:48:41;100061.91;;;8.86;99.55
30730;BME280;17476;48.458;7.928;2023-04-26T04:51:07;100068.34;;;8.91;99.93
30730;BME280;17476;48.458;7.928;2023-04-26T04:53:33;100064.59;;;8.94;99.75
30730;BME280;17476;48.458;7.928;2023-04-26T04:55:59;100063.34;;;8.98;99.26
30730;BME280;17476;48.458;7.928;2023-04-26T04:58:25;100059.91;;;8.97;99.42
30730;BME280;17476;48.458;7.928;2023-04-26T05:00:51;100060.44;;;9.01;99.73
30730;BME280;17476;48.458;7.928;2023-04-26T05:03:18;100067.63;;;9.07;100.00
30730;BME280;17476;48.458;7.928;2023-04-26T05:05:44;100069.31;;;9.08;100.00
30730;BME280;17476;48.458;7.928;2023-04-26T05:08:10;100066.53;;;9.10;99.96
30730;BME280;17476;48.458;7.928;2023-04-26T05:10:36;100077.34;;;9.15;100.00
30730;BME280;17476;48.458;7.928;2023-04-26T05:13:02;100074.94;;;9.21;100.00
30730;BME280;17476;48.458;7.928;2023-04-26T05:15:28;100073.38;;;9.28;100.00
30730;BME280;17476;48.458;7.928;2023-04-26T05:17:54;100074.53;;;9.34;99.85
30730;BME280;17476;48.458;7.928;2023-04-26T05:20:21;100072.94;;;9.41;99.65
30730;BME280;17476;48.458;7.928;2023-04-26T05:22:47;100075.13;;;9.46;99.33
30730;BME280;17476;48.458;7.928;2023-04-26T05:25:12;100076.47;;;9.50;98.83
30730;BME280;17476;48.458;7.928;2023-04-26T05:27:38;100078.09;;;9.51;98.69
30730;BME280;17476;48.458;7.928;2023-04-26T05:30:06;100080.53;;;9.52;98.17
30730;BME280;17476;48.458;7.928;2023-04-26T05:32:33;100081.72;;;9.58;98.51
30730;BME280;17476;48.458;7.928;2023-04-26T05:34:59;100083.06;;;9.62;98.25
30730;BME280;17476;48.458;7.928;2023-04-26T05:37:25;100089.44;;;9.68;96.90
30730;BME280;17476;48.458;7.928;2023-04-26T05:39:51;100082.28;;;9.70;96.83
30730;BME280;17476;48.458;7.928;2023-04-26T05:42:17;100092.41;;;9.73;96.45
30730;BME280;17476;48.458;7.928;2023-04-26T05:44:43;100099.66;;;9.79;96.98
30730;BME280;17476;48.458;7.928;2023-04-26T05:47:09;100099.84;;;9.85;96.98
30730;BME280;17476;48.458;7.928;2023-04-26T05:49:35;100099.53;;;9.89;97.51
30730;BME280;17476;48.458;7.928;2023-04-26T05:52:01;100102.19;;;9.97;96.87
30730;BME280;17476;48.458;7.928;2023-04-26T05:54:28;100107.94;;;10.08;97.46
30730;BME280;17476;48.458;7.928;2023-04-26T05:56:54;100111.28;;;10.19;99.09
30730;BME280;17476;48.458;7.928;2023-04-26T05:59:20;100113.50;;;10.31;98.86
30730;BME280;17476;48.458;7.928;2023-04-26T06:01:45;100117.56;;;10.34;97.40
30730;BME280;17476;48.458;7.928;2023-04-26T06:04:11;100125.63;;;10.49;98.18
30730;BME280;17476;48.458;7.928;2023-04-26T06:06:37;100122.38;;;10.55;98.43
30730;BME280;17476;48.458;7.928;2023-04-26T06:09:03;100125.88;;;10.63;97.71
30730;BME280;17476;48.458;7.928;2023-04-26T06:11:29;100125.72;;;10.73;97.34
30730;BME280;17476;48.458;7.928;2023-04-26T06:13:55;100120.50;;;10.81;97.67
30730;BME280;17476;48.458;7.928;2023-04-26T06:16:21;100128.50;;;10.80;97.80
30730;BME280;17476;48.458;7.928;2023-04-26T06:18:47;100128.34;;;10.89;97.98
30730;BME280;17476;48.458;7.928;2023-04-26T06:21:13;100116.94;;;11.07;96.94
30730;BME280;17476;48.458;7.928;2023-04-26T06:23:39;100121.34;;;11.14;97.36
30730;BME280;17476;48.458;7.928;2023-04-26T06:26:05;100116.44;;;11.36;97.96
30730;BME280;17476;48.458;7.928;2023-04-26T06:28:30;100110.91;;;11.39;97.49
30730;BME280;17476;48.458;7.928;2023-04-26T06:30:56;100111.84;;;11.38;95.81
30730;BME280;17476;48.458;7.928;2023-04-26T06:33:22;100112.84;;;11.37;95.22
30730;BME280;17476;48.458;7.928;2023-04-26T06:35:48;100114.66;;;11.28;93.73
30730;BME280;17476;48.458;7.928;2023-04-26T06:38:14;100110.06;;;11.30;93.79
30730;BME280;17476;48.458;7.928;2023-04-26T06:40:39;100112.38;;;11.33;93.72
30730;BME280;17476;48.458;7.928;2023-04-26T06:43:05;100108.78;;;11.34;93.10
30730;BME280;17476;48.458;7.928;2023-04-26T06:45:31;100099.09;;;11.35;94.25
30730;BME280;17476;48.458;7.928;2023-04-26T06:47:57;100095.34;;;11.29;94.28
30730;BME280;17476;48.458;7.928;2023-04-26T06:50:25;100100.59;;;11.29;93.61
30730;BME280;17476;48.458;7.928;2023-04-26T06:52:51;100095.69;;;11.34;92.38
30730;BME280;17476;48.458;7.928;2023-04-26T06:55:17;100099.59;;;11.30;88.56
30730;BME280;17476;48.458;7.928;2023-04-26T06:57:43;100096.97;;;11.22;89.00
30730;BME280;17476;48.458;7.928;2023-04-26T07:00:09;100089.94;;;11.23;90.07
30730;BME280;17476;48.458;7.928;2023-04-26T07:02:35;100097.16;;;11.20;91.01
30730;BME280;17476;48.458;7.928;2023-04-26T07:05:01;100092.25;;;11.26;90.36
30730;BME280;17476;48.458;7.928;2023-04-26T07:07:27;100090.44;;;11.34;89.92
30730;BME280;17476;48.458;7.928;2023-04-26T07:09:53;100088.81;;;11.33;91.52
30730;BME280;17476;48.458;7.928;2023-04-26T07:12:18;100096.47;;;11.43;91.62
30730;BME280;17476;48.458;7.928;2023-04-26T07:14:44;100093.56;;;11.46;91.75
30730;BME280;17476;48.458;7.928;2023-04-26T07:17:10;100090.56;;;11.57;92.57
30730;BME280;17476;48.458;7.928;2023-04-26T07:19:36;100095.97;;;11.72;91.53
30730;BME280;17476;48.458;7.928;2023-04-26T07:22:02;100097.91;;;11.78;90.89
30730;BME280;17476;48.458;7.928;2023-04-26T07:24:29;100112.66;;;11.87;91.30
30730;BME280;17476;48.458;7.928;2023-04-26T07:26:55;100106.66;;;12.18;93.21
30730;BME280;17476;48.458;7.928;2023-04-26T07:29:21;100102.09;;;12.51;93.38
30730;BME280;17476;48.458;7.928;2023-04-26T07:31:48;100089.91;;;12.89;92.38
30730;BME280;17476;48.458;7.928;2023-04-26T07:34:13;100090.16;;;13.40;92.38
30730;BME280;17476;48.458;7.928;2023-04-26T07:36:39;100091.75;;;13.79;87.33
30730;BME280;17476;48.458;7.928;2023-04-26T07:39:05;100091.84;;;14.30;87.60
30730;BME280;17476;48.458;7.928;2023-04-26T07:41:33;100094.72;;;14.86;84.21
30730;BME280;17476;48.458;7.928;2023-04-26T07:43:59;100090.09;;;15.37;84.84
30730;BME280;17476;48.458;7.928;2023-04-26T07:46:25;100089.72;;;15.96;81.19
30730;BME280;17476;48.458;7.928;2023-04-26T07:48:51;100090.13;;;16.41;78.29
30730;BME280;17476;48.458;7.928;2023-04-26T07:51:16;100088.06;;;16.98;79.37
30730;BME280;17476;48.458;7.928;2023-04-26T07:53:42;100093.78;;;17.41;70.78
30730;BME280;17476;48.458;7.928;2023-04-26T07:56:08;100092.28;;;16.79;64.07
30730;BME280;17476;48.458;7.928;2023-04-26T07:58:38;100096.50;;;16.60;68.21
30730;BME280;17476;48.458;7.928;2023-04-26T08:01:04;100101.09;;;16.45;69.90
30730;BME280;17476;48.458;7.928;2023-04-26T08:03:31;100098.44;;;16.38;68.10
30730;BME280;17476;48.458;7.928;2023-04-26T08:05:57;100101.13;;;16.51;68.73
30730;BME280;17476;48.458;7.928;2023-04-26T08:08:26;100098.19;;;16.74;67.81
30730;BME280;17476;48.458;7.928;2023-04-26T08:10:53;100088.84;;;16.85;63.50
30730;BME280;17476;48.458;7.928;2023-04-26T08:13:20;100089.66;;;16.85;69.71
30730;BME280;17476;48.458;7.928;2023-04-26T08:15:47;100090.50;;;17.26;66.25
30730;BME280;17476;48.458;7.928;2023-04-26T08:18:13;100087.63;;;17.60;64.01
30730;BME280;17476;48.458;7.928;2023-04-26T08:20:39;100093.56;;;17.62;60.30
30730;BME280;17476;48.458;7.928;2023-04-26T08:23:05;100099.47;;;17.31;62.84
30730;BME280;17476;48.458;7.928;2023-04-26T08:25:31;100102.53;;;17.28;65.16
30730;BME280;17476;48.458;7.928;2023-04-26T08:27:59;100104.97;;;17.30;63.16
30730;BME280;17476;48.458;7.928;2023-04-26T08:30:25;100099.66;;;17.36;61.86
30730;BME280;17476;48.458;7.928;2023-04-26T08:32:51;100099.06;;;17.41;60.81
30730;BME280;17476;48.458;7.928;2023-04-26T08:35:17;100094.97;;;16.99;59.66
30730;BME280;17476;48.458;7.928;2023-04-26T08:37:43;100108.47;;;16.62;60.64
30730;BME280;17476;48.458;7.928;2023-04-26T08:40:09;100106.56;;;16.36;59.88
30730;BME280;17476;48.458;7.928;2023-04-26T08:42:41;100099.75;;;16.69;63.91
30730;BME280;17476;48.458;7.928;2023-04-26T08:45:09;100089.50;;;17.27;58.66
30730;BME280;17476;48.458;7.928;2023-04-26T08:47:43;100093.97;;;17.33;62.48
30730;BME280;17476;48.458;7.928;2023-04-26T08:50:17;100088.69;;;17.26;58.62
30730;BME280;17476;48.458;7.928;2023-04-26T08:52:43;100093.09;;;16.79;59.48
30730;BME280;17476;48.458;7.928;2023-04-26T08:55:13;100090.47;;;16.25;59.02
30730;BME280;17476;48.458;7.928;2023-04-26T08:57:43;100085.66;;;16.42;58.24
30730;BME280;17476;48.458;7.928;2023-04-26T09:00:11;100088.19;;;16.15;59.56
30730;BME280;17476;48.458;7.928;2023-04-26T09:02:51;100089.38;;;16.60;62.52
30730;BME280;17476;48.458;7.928;2023-04-26T09:05:18;100081.75;;;17.32;62.83
30730;BME280;17476;48.458;7.928;2023-04-26T09:07:56;100076.88;;;17.68;58.20
30730;BME280;17476;48.458;7.928;2023-04-26T09:10:24;100070.69;;;18.01;58.12
30730;BME280;17476;48.458;7.928;2023-04-26T09:12:52;100065.22;;;18.41;57.27
30730;BME280;17476;48.458;7.928;2023-04-26T09:15:19;100074.31;;;18.58;58.17
30730;BME280;17476;48.458;7.928;2023-04-26T09:17:45;100077.50;;;19.05;54.26
30730;BME280;17476;48.458;7.928;2023-04-26T09:23:08;100071.59;;;18.78;48.90
30730;BME280;17476;48.458;7.928;2023-04-26T09:25:34;100076.53;;;18.61;53.49
30730;BME280;17476;48.458;7.928;2023-04-26T09:28:02;100075.91;;;19.04;56.89
30730;BME280;17476;48.458;7.928;2023-04-26T09:30:30;100077.59;;;19.42;58.00
30730;BME280;17476;48.458;7.928;2023-04-26T09:33:03;100066.66;;;19.56;56.49
30730;BME280;17476;48.458;7.928;2023-04-26T09:35:39;100060.19;;;19.52;54.92
30730;BME280;17476;48.458;7.928;2023-04-26T09:38:13;100065.66;;;19.76;57.53
30730;BME280;17476;48.458;7.928;2023-04-26T09:40:43;100056.50;;;19.53;50.94
30730;BME280;17476;48.458;7.928;2023-04-26T09:43:15;100061.19;;;19.58;55.49
30730;BME280;17476;48.458;7.928;2023-04-26T09:45:54;100048.09;;;20.30;55.81
30730;BME280;17476;48.458;7.928;2023-04-26T09:48:25;100050.56;;;20.61;51.54
30730;BME280;17476;48.458;7.928;2023-04-26T09:53:35;100050.44;;;21.21;50.83
30730;BME280;17476;48.458;7.928;2023-04-26T09:56:13;100051.16;;;21.52;49.62
30730;BME280;17476;48.458;7.928;2023-04-26T10:01:09;100053.13;;;21.68;48.46
30730;BME280;17476;48.458;7.928;2023-04-26T10:03:36;100042.28;;;22.39;47.40
30730;BME280;17476;48.458;7.928;2023-04-26T10:06:03;100031.22;;;23.09;41.36
30730;BME280;17476;48.458;7.928;2023-04-26T10:08:32;100040.03;;;23.09;47.00
30730;BME280;17476;48.458;7.928;2023-04-26T10:10:59;100037.06;;;23.23;45.61
30730;BME280;17476;48.458;7.928;2023-04-26T10:13:27;100041.59;;;22.88;42.38
30730;BME280;17476;48.458;7.928;2023-04-26T10:15:53;100041.50;;;21.86;44.82
30730;BME280;17476;48.458;7.928;2023-04-26T10:18:19;100046.31;;;22.01;42.58
30730;BME280;17476;48.458;7.928;2023-04-26T10:20:50;100043.50;;;22.48;43.11
30730;BME280;17476;48.458;7.928;2023-04-26T10:23:21;100039.88;;;23.33;49.16
30730;BME280;17476;48.458;7.928;2023-04-26T10:25:50;100046.91;;;24.21;46.16
30730;BME280;17476;48.458;7.928;2023-04-26T10:28:53;100043.81;;;24.08;44.85
30730;BME280;17476;48.458;7.928;2023-04-26T10:31:19;100044.56;;;23.09;37.62
30730;BME280;17476;48.458;7.928;2023-04-26T10:34:18;100041.00;;;22.01;38.86
30730;BME280;17476;48.458;7.928;2023-04-26T10:37:09;100031.88;;;22.37;43.95
30730;BME280;17476;48.458;7.928;2023-04-26T10:39:43;100039.34;;;22.52;44.24
30730;BME280;17476;48.458;7.928;2023-04-26T10:42:28;100037.84;;;22.73;47.87
30730;BME280;17476;48.458;7.928;2023-04-26T10:44:59;100033.44;;;23.12;43.17
30730;BME280;17476;48.458;7.928;2023-04-26T10:47:33;100028.16;;;23.34;47.56
30730;BME280;17476;48.458;7.928;2023-04-26T10:50:18;100023.47;;;23.24;38.99
30730;BME280;17476;48.458;7.928;2023-04-26T10:53:04;100018.06;;;23.02;37.92
30730;BME280;17476;48.458;7.928;2023-04-26T10:55:42;100013.16;;;23.11;41.46
30730;BME280;17476;48.458;7.928;2023-04-26T10:58:31;100004.75;;;24.02;38.91
30730;BME280;17476;48.458;7.928;2023-04-26T11:01:07;100012.88;;;24.12;39.73
30730;BME280;17476;48.458;7.928;2023-04-26T11:03:39;100006.50;;;24.72;37.56
30730;BME280;17476;48.458;7.928;2023-04-26T11:06:09;100002.47;;;25.01;41.42
30730;BME280;17476;48.458;7.928;2023-04-26T11:08:38;100001.53;;;24.81;38.48
30730;BME280;17476;48.458;7.928;2023-04-26T11:11:11;100008.00;;;24.58;35.25
30730;BME280;17476;48.458;7.928;2023-04-26T11:13:40;99995.91;;;24.50;41.74
30730;BME280;17476;48.458;7.928;2023-04-26T11:16:14;99999.59;;;24.44;38.81
30730;BME280;17476;48.458;7.928;2023-04-26T11:18:43;99996.84;;;23.90;35.31
30730;BME280;17476;48.458;7.928;2023-04-26T11:21:09;99999.97;;;22.87;38.29
30730;BME280;17476;48.458;7.928;2023-04-26T11:23:36;99992.84;;;22.76;38.38
30730;BME280;17476;48.458;7.928;2023-04-26T11:26:06;99992.78;;;21.74;39.91
30730;BME280;17476;48.458;7.928;2023-04-26T11:28:35;99984.03;;;22.02;41.11
30730;BME280;17476;48.458;7.928;2023-04-26T11:31:06;99988.34;;;22.48;37.65
30730;BME280;17476;48.458;7.928;2023-04-26T11:33:32;99978.19;;;22.62;37.79
30730;BME280;17476;48.458;7.928;2023-04-26T11:36:01;99977.66;;;21.63;35.80
30730;BME280;17476;48.458;7.928;2023-04-26T11:38:28;99980.00;;;21.24;38.72
30730;BME280;17476;48.458;7.928;2023-04-26T11:41:01;99976.63;;;22.04;40.43
30730;BME280;17476;48.458;7.928;2023-04-26T11:43:38;99969.50;;;22.83;42.10
30730;BME280;17476;48.458;7.928;2023-04-26T11:46:06;99968.50;;;23.06;43.70
30730;BME280;17476;48.458;7.928;2023-04-26T11:48:35;99966.63;;;23.62;43.41
30730;BME280;17476;48.458;7.928;2023-04-26T11:51:03;99966.88;;;24.10;44.38
30730;BME280;17476;48.458;7.928;2023-04-26T11:53:41;99958.72;;;24.21;39.19
30730;BME280;17476;48.458;7.928;2023-04-26T11:56:14;99967.34;;;24.29;42.47
30730;BME280;17476;48.458;7.928;2023-04-26T11:58:47;99959.63;;;23.78;34.55
30730;BME280;17476;48.458;7.928;2023-04-26T12:01:21;99960.69;;;23.38;35.70
30730;BME280;17476;48.458;7.928;2023-04-26T12:03:56;99965.53;;;23.41;35.32
30730;BME280;17476;48.458;7.928;2023-04-26T12:06:41;99960.31;;;23.52;37.59
30730;BME280;17476;48.458;7.928;2023-04-26T12:09:07;99959.38;;;24.07;36.39
30730;BME280;17476;48.458;7.928;2023-04-26T12:11:34;99958.41;;;23.47;38.42
30730;BME280;17476;48.458;7.928;2023-04-26T12:14:00;99950.56;;;22.51;34.31
30730;BME280;17476;48.458;7.928;2023-04-26T12:16:26;99956.31;;;22.60;37.68
30730;BME280;17476;48.458;7.928;2023-04-26T12:18:53;99950.31;;;22.36;40.03
30730;BME280;17476;48.458;7.928;2023-04-26T12:21:20;99952.34;;;23.13;38.83
30730;BME280;17476;48.458;7.928;2023-04-26T12:23:46;99942.16;;;23.10;34.14
30730;BME280;17476;48.458;7.928;2023-04-26T12:26:13;99943.78;;;22.94;38.47
30730;BME280;17476;48.458;7.928;2023-04-26T12:28:39;99944.63;;;23.16;33.96
30730;BME280;17476;48.458;7.928;2023-04-26T12:31:06;99935.69;;;23.45;35.50
30730;BME280;17476;48.458;7.928;2023-04-26T12:33:32;99938.13;;;23.68;34.86
30730;BME280;17476;48.458;7.928;2023-04-26T12:36:16;99925.69;;;24.65;38.49
30730;BME280;17476;48.458;7.928;2023-04-26T12:38:42;99918.28;;;25.87;38.41
30730;BME280;17476;48.458;7.928;2023-04-26T12:41:07;99924.78;;;26.67;34.23
30730;BME280;17476;48.458;7.928;2023-04-26T12:43:33;99917.19;;;27.26;30.46
30730;BME280;17476;48.458;7.928;2023-04-26T12:45:59;99925.31;;;26.13;28.89
30730;BME280;17476;48.458;7.928;2023-04-26T12:48:26;99935.97;;;25.83;33.63
30730;BME280;17476;48.458;7.928;2023-04-26T12:50:51;99943.38;;;23.63;29.96
30730;BME280;17476;48.458;7.928;2023-04-26T12:53:17;99940.31;;;23.10;32.83
30730;BME280;17476;48.458;7.928;2023-04-26T12:55:43;99938.19;;;24.00;34.44
30730;BME280;17476;48.458;7.928;2023-04-26T12:58:09;99930.50;;;25.00;33.69
30730;BME280;17476;48.458;7.928;2023-04-26T13:00:35;99929.31;;;24.48;29.85
30730;BME280;17476;48.458;7.928;2023-04-26T13:03:01;99936.44;;;23.62;30.64
30730;BME280;17476;48.458;7.928;2023-04-26T13:05:27;99945.13;;;23.52;31.53